createdAt,value
2018-07-10T00:00:43.149Z,19.26
2018-07-10T00:01:43.104Z,19.29
2018-07-10T00:02:43.061Z,19.37
2018-07-10T00:03:43.020Z,19.29
2018-07-10T00:04:43.004Z,19.29
2018-07-10T00:05:42.936Z,19.29
2018-07-10T00:06:42.887Z,19.30
2018-07-10T00:07:42.894Z,19.31
2018-07-10T00:08:42.796Z,19.29
2018-07-10T00:09:42.751Z,19.27
2018-07-10T00:10:42.712Z,19.26
2018-07-10T00:11:42.665Z,19.29
2018-07-10T00:12:42.656Z,19.29
2018-07-10T00:13:42.614Z,19.27
2018-07-10T00:14:42.534Z,19.27
2018-07-10T00:15:42.531Z,19.26
2018-07-10T00:16:42.447Z,19.27
2018-07-10T00:17:42.401Z,19.22
2018-07-10T00:18:42.355Z,19.26
2018-07-10T00:19:42.311Z,19.30
2018-07-10T00:20:42.323Z,19.31
2018-07-10T00:21:42.225Z,19.21
2018-07-10T00:22:42.182Z,19.27
2018-07-10T00:23:42.174Z,19.27
2018-07-10T00:24:42.129Z,19.26
2018-07-10T00:25:42.049Z,19.19
2018-07-10T00:26:42.029Z,19.12
2018-07-10T00:27:41.959Z,19.29
2018-07-10T00:28:41.917Z,19.14
2018-07-10T00:29:41.904Z,19.16
2018-07-10T00:30:41.832Z,19.11
2018-07-10T00:31:41.821Z,19.14
2018-07-10T00:32:41.740Z,19.22
2018-07-10T00:33:41.731Z,19.26
2018-07-10T00:34:41.651Z,19.08
2018-07-10T00:35:41.606Z,19.14
2018-07-10T00:36:41.568Z,19.15
2018-07-10T00:37:41.518Z,19.09
2018-07-10T00:38:41.510Z,19.07
2018-07-10T00:39:41.434Z,19.08
2018-07-10T00:40:41.387Z,19.00
2018-07-10T00:41:41.385Z,18.98
2018-07-10T00:42:41.301Z,18.95
2018-07-10T00:43:41.290Z,18.93
2018-07-10T00:44:41.210Z,18.86
2018-07-10T00:45:41.166Z,18.88
2018-07-10T00:46:41.126Z,18.93
2018-07-10T00:47:41.079Z,18.86
2018-07-10T00:48:41.069Z,18.88
2018-07-10T00:49:40.991Z,18.74
2018-07-10T00:50:40.985Z,18.80
2018-07-10T00:51:40.904Z,18.81
2018-07-10T00:52:40.857Z,18.77
2018-07-10T00:53:40.816Z,18.74
2018-07-10T00:54:40.774Z,18.74
2018-07-10T00:55:40.761Z,18.78
2018-07-10T00:56:40.682Z,18.77
2018-07-10T00:57:40.637Z,18.80
2018-07-10T00:58:40.594Z,18.71
2018-07-10T00:59:40.552Z,18.65
2018-07-10T01:00:40.542Z,18.63
2018-07-10T01:01:40.461Z,18.60
2018-07-10T01:02:40.419Z,18.63
2018-07-10T01:03:40.372Z,18.62
2018-07-10T01:04:40.329Z,18.49
2018-07-10T01:05:40.325Z,18.58
2018-07-10T01:06:40.241Z,18.59
2018-07-10T01:07:40.196Z,18.52
2018-07-10T01:08:40.152Z,18.59
2018-07-10T01:09:40.109Z,18.49
2018-07-10T01:10:40.101Z,18.52
2018-07-10T01:11:40.029Z,18.49
2018-07-10T01:12:39.973Z,18.47
2018-07-10T01:13:39.939Z,18.47
2018-07-10T01:14:39.925Z,18.50
2018-07-10T01:15:39.841Z,18.45
2018-07-10T01:16:39.800Z,18.47
2018-07-10T01:17:39.794Z,18.44
2018-07-10T01:18:39.711Z,18.38
2018-07-10T01:19:39.664Z,18.47
2018-07-10T01:20:39.620Z,18.45
2018-07-10T01:21:39.574Z,18.52
2018-07-10T01:22:39.571Z,18.41
2018-07-10T01:23:39.489Z,18.49
2018-07-10T01:24:39.442Z,18.49
2018-07-10T01:25:39.397Z,18.41
2018-07-10T01:26:39.390Z,18.50
2018-07-10T01:27:39.310Z,18.45
2018-07-10T01:28:39.267Z,18.43
2018-07-10T01:29:39.220Z,18.35
2018-07-10T01:30:39.175Z,18.34
2018-07-10T01:31:39.176Z,18.29
2018-07-10T01:32:39.087Z,18.28
2018-07-10T01:33:39.102Z,18.28
2018-07-10T01:34:38.999Z,18.34
2018-07-10T01:35:38.954Z,18.26
2018-07-10T01:36:38.943Z,18.26
2018-07-10T01:37:38.865Z,18.33
2018-07-10T01:38:38.820Z,18.19
2018-07-10T01:39:38.775Z,18.19
2018-07-10T01:40:38.774Z,18.13
2018-07-10T01:41:38.688Z,18.11
2018-07-10T01:42:38.642Z,18.13
2018-07-10T01:43:38.598Z,18.07
2018-07-10T01:44:38.554Z,18.13
2018-07-10T01:45:38.540Z,18.04
2018-07-10T01:46:38.465Z,18.10
2018-07-10T01:47:38.423Z,17.98
2018-07-10T01:48:38.375Z,17.97
2018-07-10T01:49:38.363Z,18.01
2018-07-10T01:50:38.290Z,17.97
2018-07-10T01:51:38.244Z,17.98
2018-07-10T01:52:38.233Z,17.98
2018-07-10T01:53:38.153Z,18.04
2018-07-10T01:54:38.112Z,17.97
2018-07-10T01:55:38.064Z,17.95
2018-07-10T01:56:38.086Z,18.04
2018-07-10T01:57:38.012Z,17.97
2018-07-10T01:58:37.966Z,17.95
2018-07-10T01:59:37.887Z,18.00
2018-07-10T02:00:37.838Z,17.97
2018-07-10T02:01:37.795Z,17.95
2018-07-10T02:02:37.788Z,17.90
2018-07-10T02:03:37.706Z,17.92
2018-07-10T02:04:37.695Z,17.86
2018-07-10T02:05:37.620Z,17.85
2018-07-10T02:06:37.571Z,17.83
2018-07-10T02:07:37.532Z,17.89
2018-07-10T02:08:37.482Z,17.90
2018-07-10T02:09:37.470Z,17.92
2018-07-10T02:10:37.424Z,17.89
2018-07-10T02:11:37.348Z,17.87
2018-07-10T02:12:37.303Z,17.85
2018-07-10T02:13:37.261Z,17.83
2018-07-10T02:14:37.243Z,17.89
2018-07-10T02:15:37.167Z,17.90
2018-07-10T02:16:37.124Z,17.89
2018-07-10T02:17:37.079Z,17.86
2018-07-10T02:18:37.035Z,17.90
2018-07-10T02:19:37.024Z,17.83
2018-07-10T02:20:36.946Z,17.85
2018-07-10T02:21:36.943Z,17.80
2018-07-10T02:22:36.857Z,17.79
2018-07-10T02:23:36.811Z,17.74
2018-07-10T02:24:36.765Z,17.78
2018-07-10T02:25:36.721Z,17.78
2018-07-10T02:26:36.728Z,17.68
2018-07-10T02:27:36.634Z,17.72
2018-07-10T02:28:36.585Z,17.67
2018-07-10T02:29:36.545Z,17.60
2018-07-10T02:30:36.497Z,17.64
2018-07-10T02:31:36.503Z,17.57
2018-07-10T02:32:36.406Z,17.56
2018-07-10T02:33:36.365Z,17.57
2018-07-10T02:34:36.327Z,17.56
2018-07-10T02:35:36.274Z,17.49
2018-07-10T02:36:36.265Z,17.46
2018-07-10T02:37:36.186Z,17.45
2018-07-10T02:38:36.138Z,17.48
2018-07-10T02:39:36.093Z,17.48
2018-07-10T02:40:36.047Z,17.54
2018-07-10T02:41:36.033Z,17.52
2018-07-10T02:42:35.997Z,17.48
2018-07-10T02:43:35.913Z,17.41
2018-07-10T02:44:35.867Z,17.44
2018-07-10T02:45:40.626Z,17.51
2018-07-10T02:46:35.783Z,17.39
2018-07-10T02:47:35.765Z,17.27
2018-07-10T02:48:35.738Z,17.51
2018-07-10T02:49:35.644Z,17.41
2018-07-10T02:50:35.600Z,17.36
2018-07-10T02:51:35.554Z,17.29
2018-07-10T02:52:35.509Z,17.41
2018-07-10T02:53:35.506Z,17.30
2018-07-10T02:54:35.418Z,17.30
2018-07-10T02:55:35.373Z,17.30
2018-07-10T02:56:35.328Z,17.27
2018-07-10T02:57:35.283Z,17.27
2018-07-10T02:58:35.282Z,17.30
2018-07-10T02:59:35.191Z,17.29
2018-07-10T03:00:35.146Z,17.41
2018-07-10T03:01:35.106Z,17.41
2018-07-10T03:02:35.067Z,17.45
2018-07-10T03:03:35.044Z,17.48
2018-07-10T03:04:34.966Z,17.41
2018-07-10T03:05:34.923Z,17.44
2018-07-10T03:06:34.879Z,17.36
2018-07-10T03:07:34.833Z,17.36
2018-07-10T03:08:34.817Z,17.46
2018-07-10T03:09:34.740Z,17.44
2018-07-10T03:10:34.728Z,17.45
2018-07-10T03:11:34.652Z,17.45
2018-07-10T03:12:34.638Z,17.45
2018-07-10T03:13:34.563Z,17.45
2018-07-10T03:14:34.517Z,17.45
2018-07-10T03:15:34.471Z,17.54
2018-07-10T03:16:34.456Z,17.48
2018-07-10T03:17:34.410Z,17.48
2018-07-10T03:18:34.336Z,17.59
2018-07-10T03:19:34.295Z,17.49
2018-07-10T03:20:34.251Z,17.48
2018-07-10T03:21:34.234Z,17.56
2018-07-10T03:22:34.155Z,17.59
2018-07-10T03:23:34.109Z,17.63
2018-07-10T03:24:34.099Z,17.54
2018-07-10T03:25:34.020Z,17.56
2018-07-10T03:26:34.007Z,17.56
2018-07-10T03:27:33.968Z,17.57
2018-07-10T03:28:33.885Z,17.57
2018-07-10T03:29:33.837Z,17.57
2018-07-10T03:30:33.794Z,17.54
2018-07-10T03:31:33.760Z,17.52
2018-07-10T03:32:33.744Z,17.54
2018-07-10T03:33:33.659Z,17.57
2018-07-10T03:34:33.610Z,17.63
2018-07-10T03:35:33.566Z,17.48
2018-07-10T03:36:33.529Z,17.48
2018-07-10T03:37:33.529Z,17.63
2018-07-10T03:38:33.431Z,17.57
2018-07-10T03:39:33.389Z,17.48
2018-07-10T03:40:33.345Z,17.52
2018-07-10T03:41:33.300Z,17.44
2018-07-10T03:42:33.283Z,17.39
2018-07-10T03:43:33.207Z,17.46
2018-07-10T03:44:33.161Z,17.39
2018-07-10T03:45:33.117Z,17.24
2018-07-10T03:46:33.069Z,17.27
2018-07-10T03:47:33.072Z,17.26
2018-07-10T03:48:32.978Z,17.20
2018-07-10T03:49:32.965Z,17.12
2018-07-10T03:50:32.921Z,17.20
2018-07-10T03:51:32.845Z,17.14
2018-07-10T03:52:32.798Z,16.97
2018-07-10T03:53:32.754Z,17.01
2018-07-10T03:54:32.740Z,16.97
2018-07-10T03:55:32.663Z,17.02
2018-07-10T03:56:32.617Z,17.04
2018-07-10T03:57:32.571Z,16.93
2018-07-10T03:58:32.526Z,16.86
2018-07-10T03:59:32.513Z,16.78
2018-07-10T04:00:32.440Z,16.72
2018-07-10T04:01:32.447Z,16.64
2018-07-10T04:02:32.345Z,16.50
2018-07-10T04:03:32.298Z,16.53
2018-07-10T04:04:32.303Z,16.42
2018-07-10T04:05:32.208Z,16.42
2018-07-10T04:06:32.164Z,16.43
2018-07-10T04:07:32.117Z,16.28
2018-07-10T04:08:32.068Z,16.32
2018-07-10T04:09:32.076Z,16.35
2018-07-10T04:10:32.067Z,16.24
2018-07-10T04:11:31.934Z,16.16
2018-07-10T04:12:31.887Z,16.10
2018-07-10T04:13:31.843Z,16.05
2018-07-10T04:14:31.829Z,16.05
2018-07-10T04:15:31.799Z,15.95
2018-07-10T04:16:31.704Z,15.90
2018-07-10T04:17:31.659Z,15.91
2018-07-10T04:18:31.616Z,15.83
2018-07-10T04:19:31.567Z,15.83
2018-07-10T04:20:31.563Z,15.77
2018-07-10T04:21:31.475Z,15.79
2018-07-10T04:22:31.432Z,15.83
2018-07-10T04:23:31.383Z,15.82
2018-07-10T04:24:31.335Z,15.80
2018-07-10T04:25:31.345Z,15.83
2018-07-10T04:26:31.245Z,15.79
2018-07-10T04:27:31.201Z,15.73
2018-07-10T04:28:31.155Z,15.75
2018-07-10T04:29:31.108Z,15.75
2018-07-10T04:30:31.103Z,15.67
2018-07-10T04:31:31.014Z,15.67
2018-07-10T04:32:30.968Z,15.72
2018-07-10T04:33:30.923Z,15.61
2018-07-10T04:34:30.878Z,15.62
2018-07-10T04:35:30.863Z,15.64
2018-07-10T04:36:30.784Z,15.65
2018-07-10T04:37:30.738Z,15.59
2018-07-10T04:38:30.696Z,15.61
2018-07-10T04:39:30.648Z,15.59
2018-07-10T04:40:30.721Z,15.64
2018-07-10T04:41:30.553Z,15.65
2018-07-10T04:42:30.508Z,15.58
2018-07-10T04:43:30.464Z,15.54
2018-07-10T04:44:30.415Z,15.54
2018-07-10T04:45:30.400Z,15.54
2018-07-10T04:46:30.325Z,15.58
2018-07-10T04:47:30.277Z,15.51
2018-07-10T04:48:30.252Z,15.43
2018-07-10T04:49:30.217Z,15.51
2018-07-10T04:50:30.140Z,15.43
2018-07-10T04:51:30.091Z,15.40
2018-07-10T04:52:30.045Z,15.46
2018-07-10T04:53:30.034Z,15.42
2018-07-10T04:54:29.950Z,15.42
2018-07-10T04:55:29.909Z,15.44
2018-07-10T04:56:29.899Z,15.40
2018-07-10T04:57:29.817Z,15.39
2018-07-10T04:58:29.768Z,15.43
2018-07-10T04:59:29.720Z,15.43
2018-07-10T05:00:29.674Z,15.36
2018-07-10T05:01:29.662Z,15.49
2018-07-10T05:02:29.581Z,15.47
2018-07-10T05:03:29.536Z,15.47
2018-07-10T05:04:29.486Z,15.57
2018-07-10T05:05:29.440Z,15.59
2018-07-10T05:06:29.434Z,15.51
2018-07-10T05:07:29.348Z,15.51
2018-07-10T05:08:29.301Z,15.57
2018-07-10T05:09:29.257Z,15.57
2018-07-10T05:10:29.209Z,15.52
2018-07-10T05:11:29.193Z,15.57
2018-07-10T05:12:29.114Z,15.55
2018-07-10T05:13:29.105Z,15.55
2018-07-10T05:14:29.024Z,15.59
2018-07-10T05:15:28.980Z,15.55
2018-07-10T05:16:28.931Z,15.52
2018-07-10T05:17:28.883Z,15.52
2018-07-10T05:18:28.872Z,15.59
2018-07-10T05:19:28.793Z,15.59
2018-07-10T05:20:28.744Z,15.49
2018-07-10T05:21:28.730Z,15.59
2018-07-10T05:22:28.656Z,15.52
2018-07-10T05:23:28.605Z,15.58
2018-07-10T05:24:28.557Z,15.59
2018-07-10T05:25:28.516Z,15.59
2018-07-10T05:26:28.499Z,15.64
2018-07-10T05:27:28.420Z,15.61
2018-07-10T05:28:28.375Z,15.64
2018-07-10T05:29:28.327Z,15.64
2018-07-10T05:30:28.321Z,15.57
2018-07-10T05:31:28.235Z,15.61
2018-07-10T05:32:28.187Z,15.73
2018-07-10T05:33:28.143Z,15.77
2018-07-10T05:34:28.094Z,15.76
2018-07-10T05:35:28.088Z,15.79
2018-07-10T05:36:28.057Z,15.84
2018-07-10T05:37:27.957Z,15.91
2018-07-10T05:38:27.912Z,15.86
2018-07-10T05:39:27.863Z,15.91
2018-07-10T05:40:27.817Z,15.94
2018-07-10T05:41:27.805Z,15.83
2018-07-10T05:42:27.728Z,15.95
2018-07-10T05:43:27.711Z,15.90
2018-07-10T05:44:27.634Z,15.92
2018-07-10T05:45:27.586Z,15.92
2018-07-10T05:46:27.566Z,15.79
2018-07-10T05:47:27.525Z,15.90
2018-07-10T05:48:27.450Z,15.76
2018-07-10T05:49:27.441Z,15.80
2018-07-10T05:50:27.356Z,15.76
2018-07-10T05:51:27.309Z,15.75
2018-07-10T05:52:27.263Z,15.70
2018-07-10T05:53:27.218Z,15.70
2018-07-10T05:54:27.211Z,15.64
2018-07-10T05:55:27.125Z,15.68
2018-07-10T05:56:27.078Z,15.62
2018-07-10T05:57:27.031Z,15.68
2018-07-10T05:58:27.003Z,15.57
2018-07-10T05:59:26.975Z,15.57
2018-07-10T06:00:26.927Z,15.58
2018-07-10T06:01:26.850Z,15.61
2018-07-10T06:02:26.802Z,15.62
2018-07-10T06:03:26.759Z,15.55
2018-07-10T06:04:26.727Z,15.55
2018-07-10T06:05:26.694Z,15.52
2018-07-10T06:06:26.617Z,15.58
2018-07-10T06:07:26.574Z,15.51
2018-07-10T06:08:26.541Z,15.54
2018-07-10T06:09:26.480Z,15.52
2018-07-10T06:10:26.580Z,15.52
2018-07-10T06:11:26.386Z,15.54
2018-07-10T06:12:26.337Z,15.52
2018-07-10T06:13:26.291Z,15.54
2018-07-10T06:14:26.246Z,15.54
2018-07-10T06:15:26.231Z,15.54
2018-07-10T06:16:26.154Z,15.49
2018-07-10T06:17:26.105Z,15.54
2018-07-10T06:18:26.104Z,15.52
2018-07-10T06:19:26.015Z,15.59
2018-07-10T06:20:25.966Z,15.62
2018-07-10T06:21:25.925Z,15.61
2018-07-10T06:22:25.976Z,15.70
2018-07-10T06:23:25.870Z,15.62
2018-07-10T06:24:25.781Z,15.73
2018-07-10T06:25:25.737Z,15.76
2018-07-10T06:26:25.691Z,15.76
2018-07-10T06:27:25.648Z,15.75
2018-07-10T06:28:25.635Z,15.79
2018-07-10T06:29:25.566Z,15.65
2018-07-10T06:30:25.565Z,15.70
2018-07-10T06:31:25.489Z,15.68
2018-07-10T06:32:25.413Z,15.72
2018-07-10T06:33:25.364Z,15.73
2018-07-10T06:34:25.353Z,15.70
2018-07-10T06:35:25.276Z,15.73
2018-07-10T06:36:25.225Z,15.65
2018-07-10T06:37:25.179Z,15.62
2018-07-10T06:38:25.136Z,15.62
2018-07-10T06:39:25.127Z,15.62
2018-07-10T06:40:25.047Z,15.58
2018-07-10T06:41:24.995Z,15.72
2018-07-10T06:42:24.962Z,15.72
2018-07-10T06:43:24.904Z,15.72
2018-07-10T06:44:24.920Z,15.72
2018-07-10T06:45:24.807Z,15.82
2018-07-10T06:46:24.763Z,15.80
2018-07-10T06:47:24.720Z,15.84
2018-07-10T06:48:24.673Z,15.80
2018-07-10T06:49:24.658Z,15.86
2018-07-10T06:50:24.709Z,15.90
2018-07-10T06:51:24.533Z,15.92
2018-07-10T06:52:24.608Z,15.97
2018-07-10T06:53:24.888Z,15.94
2018-07-10T06:54:24.394Z,15.97
2018-07-10T06:55:24.379Z,16.04
2018-07-10T06:56:24.305Z,16.20
2018-07-10T06:57:24.255Z,16.26
2018-07-10T06:58:24.258Z,16.17
2018-07-10T06:59:24.163Z,16.16
2018-07-10T07:00:24.115Z,16.21
2018-07-10T07:01:24.072Z,16.20
2018-07-10T07:02:24.030Z,16.26
2018-07-10T07:03:24.014Z,16.28
2018-07-10T07:04:23.936Z,16.24
2018-07-10T07:05:23.893Z,16.36
2018-07-10T07:06:23.840Z,16.41
2018-07-10T07:07:23.795Z,16.38
2018-07-10T07:08:23.788Z,16.28
2018-07-10T07:09:23.703Z,16.32
2018-07-10T07:10:23.656Z,16.28
2018-07-10T07:11:23.610Z,16.26
2018-07-10T07:12:23.566Z,16.24
2018-07-10T07:13:23.552Z,16.36
2018-07-10T07:14:23.477Z,16.39
2018-07-10T07:15:23.428Z,16.47
2018-07-10T07:16:23.382Z,16.54
2018-07-10T07:17:23.368Z,16.57
2018-07-10T07:18:23.289Z,16.68
2018-07-10T07:19:23.244Z,16.75
2018-07-10T07:20:23.197Z,16.78
2018-07-10T07:21:23.153Z,16.86
2018-07-10T07:22:23.157Z,16.93
2018-07-10T07:23:23.064Z,17.04
2018-07-10T07:24:23.015Z,16.97
2018-07-10T07:25:22.976Z,17.22
2018-07-10T07:26:22.924Z,17.15
2018-07-10T07:27:22.910Z,17.30
2018-07-10T07:29:22.786Z,17.45
2018-07-10T07:30:22.742Z,17.45
2018-07-10T07:31:22.700Z,17.54
2018-07-10T07:32:22.653Z,17.45
2018-07-10T07:33:22.640Z,17.45
2018-07-10T07:34:22.597Z,17.51
2018-07-10T07:35:22.519Z,17.52
2018-07-10T07:36:22.471Z,17.42
2018-07-10T07:37:22.428Z,17.48
2018-07-10T07:38:22.405Z,17.45
2018-07-10T07:39:22.366Z,17.33
2018-07-10T07:40:22.332Z,17.29
2018-07-10T07:41:22.261Z,17.29
2018-07-10T07:42:22.200Z,17.20
2018-07-10T07:43:22.156Z,17.15
2018-07-10T07:44:22.153Z,17.22
2018-07-10T07:45:22.099Z,17.19
2018-07-10T07:46:22.022Z,17.29
2018-07-10T07:47:21.976Z,17.29
2018-07-10T07:48:21.963Z,17.38
2018-07-10T07:49:21.890Z,17.42
2018-07-10T07:50:21.841Z,17.48
2018-07-10T07:51:21.798Z,17.49
2018-07-10T07:52:21.751Z,17.49
2018-07-10T07:53:21.745Z,17.64
2018-07-10T07:54:21.661Z,17.78
2018-07-10T07:55:21.641Z,17.78
2018-07-10T07:56:21.569Z,17.72
2018-07-10T07:57:21.527Z,17.90
2018-07-10T07:58:21.522Z,17.98
2018-07-10T07:59:21.441Z,18.13
2018-07-10T08:00:21.455Z,18.13
2018-07-10T08:01:21.351Z,18.16
2018-07-10T08:02:21.335Z,18.13
2018-07-10T08:03:21.260Z,18.26
2018-07-10T08:04:21.254Z,18.31
2018-07-10T08:05:21.197Z,18.28
2018-07-10T08:06:21.127Z,18.31
2018-07-10T08:07:21.083Z,18.33
2018-07-10T08:08:21.038Z,18.23
2018-07-10T08:09:21.031Z,18.22
2018-07-10T08:10:20.950Z,18.28
2018-07-10T08:11:20.905Z,18.31
2018-07-10T08:12:20.863Z,18.38
2018-07-10T08:13:20.865Z,18.52
2018-07-10T08:14:20.770Z,18.49
2018-07-10T08:15:20.728Z,18.53
2018-07-10T08:16:20.682Z,18.65
2018-07-10T08:17:20.677Z,18.75
2018-07-10T08:18:20.626Z,18.71
2018-07-10T08:19:20.556Z,18.70
2018-07-10T08:20:20.538Z,18.73
2018-07-10T08:21:20.511Z,18.65
2018-07-10T08:22:20.419Z,18.63
2018-07-10T08:23:20.374Z,18.68
2018-07-10T08:24:20.330Z,18.66
2018-07-10T08:25:20.286Z,18.60
2018-07-10T08:26:20.286Z,18.65
2018-07-10T08:27:20.198Z,18.53
2018-07-10T08:28:20.154Z,18.52
2018-07-10T08:29:20.110Z,18.45
2018-07-10T08:30:20.070Z,18.34
2018-07-10T08:31:20.063Z,18.33
2018-07-10T08:32:19.979Z,18.33
2018-07-10T08:33:19.943Z,18.35
2018-07-10T08:34:19.892Z,18.43
2018-07-10T08:35:19.848Z,18.49
2018-07-10T08:36:19.838Z,18.49
2018-07-10T08:37:19.759Z,18.47
2018-07-10T08:38:19.747Z,18.49
2018-07-10T08:39:19.673Z,18.52
2018-07-10T08:40:19.627Z,18.58
2018-07-10T08:41:19.584Z,18.66
2018-07-10T08:42:19.540Z,18.74
2018-07-10T08:43:19.590Z,18.80
2018-07-10T08:44:19.453Z,18.90
2018-07-10T08:45:19.410Z,18.89
2018-07-10T08:46:19.365Z,18.89
2018-07-10T08:47:19.322Z,18.83
2018-07-10T08:48:19.310Z,18.96
2018-07-10T08:49:19.274Z,19.00
2018-07-10T08:50:19.188Z,19.12
2018-07-10T08:51:19.154Z,19.16
2018-07-10T08:52:19.101Z,19.30
2018-07-10T08:53:19.058Z,19.67
2018-07-10T08:54:19.045Z,19.85
2018-07-10T08:55:18.970Z,20.06
2018-07-10T08:56:18.978Z,20.09
2018-07-10T08:57:18.883Z,20.02
2018-07-10T08:58:18.841Z,19.94
2018-07-10T08:59:18.801Z,19.89
2018-07-10T09:00:18.754Z,19.76
2018-07-10T09:01:18.741Z,19.76
2018-07-10T09:02:18.667Z,19.64
2018-07-10T09:03:18.627Z,19.55
2018-07-10T09:04:18.577Z,19.56
2018-07-10T09:05:18.567Z,19.56
2018-07-10T09:06:18.493Z,19.63
2018-07-10T09:07:18.450Z,19.58
2018-07-10T09:08:18.405Z,19.69
2018-07-10T09:09:18.362Z,19.71
2018-07-10T09:10:18.353Z,19.94
2018-07-10T09:11:18.280Z,20.13
2018-07-10T09:12:18.234Z,20.39
2018-07-10T09:13:18.191Z,20.56
2018-07-10T09:14:18.151Z,20.60
2018-07-10T09:15:18.137Z,20.84
2018-07-10T09:16:18.063Z,21.00
2018-07-10T09:17:18.019Z,21.37
2018-07-10T09:18:17.977Z,21.62
2018-07-10T09:19:17.934Z,21.85
2018-07-10T09:20:17.923Z,22.06
2018-07-10T09:21:17.848Z,22.22
2018-07-10T09:22:17.842Z,22.13
2018-07-10T09:23:17.924Z,21.98
2018-07-10T09:24:17.723Z,21.95
2018-07-10T09:25:17.683Z,22.10
2018-07-10T09:26:17.641Z,22.18
2018-07-10T09:27:17.630Z,22.22
2018-07-10T09:28:17.554Z,22.30
2018-07-10T09:29:17.513Z,22.32
2018-07-10T09:30:17.472Z,22.45
2018-07-10T09:31:17.432Z,22.51
2018-07-10T09:32:17.420Z,22.53
2018-07-10T09:33:17.348Z,22.39
2018-07-10T09:34:17.307Z,22.39
2018-07-10T09:35:17.261Z,22.35
2018-07-10T09:36:17.253Z,22.08
2018-07-10T09:37:17.180Z,21.93
2018-07-10T09:38:17.234Z,21.72
2018-07-10T09:39:17.098Z,21.58
2018-07-10T09:40:17.057Z,21.42
2018-07-10T09:41:17.046Z,21.29
2018-07-10T09:42:16.976Z,21.18
2018-07-10T09:43:16.932Z,21.07
2018-07-10T09:44:16.928Z,20.99
2018-07-10T09:45:16.849Z,20.84
2018-07-10T09:46:16.807Z,20.67
2018-07-10T09:47:16.772Z,20.59
2018-07-10T09:48:16.754Z,20.55
2018-07-10T09:49:16.680Z,20.44
2018-07-10T09:50:16.641Z,20.40
2018-07-10T09:51:16.601Z,20.36
2018-07-10T09:52:16.561Z,20.34
2018-07-10T09:53:16.539Z,20.32
2018-07-10T09:54:16.473Z,20.24
2018-07-10T09:55:16.461Z,20.14
2018-07-10T09:56:16.387Z,20.06
2018-07-10T09:57:16.348Z,20.13
2018-07-10T09:58:16.302Z,20.13
2018-07-10T09:59:16.269Z,20.07
2018-07-10T10:00:16.258Z,20.00
2018-07-10T10:01:16.177Z,20.02
2018-07-10T10:02:16.137Z,20.04
2018-07-10T10:03:16.095Z,20.13
2018-07-10T10:04:16.052Z,20.36
2018-07-10T10:05:16.040Z,20.58
2018-07-10T10:06:15.967Z,20.74
2018-07-10T10:07:15.923Z,20.90
2018-07-10T10:08:15.930Z,21.27
2018-07-10T10:09:15.839Z,21.64
2018-07-10T10:10:15.801Z,21.85
2018-07-10T10:11:15.757Z,21.77
2018-07-10T10:12:15.715Z,21.57
2018-07-10T10:13:15.713Z,21.50
2018-07-10T10:14:15.632Z,21.67
2018-07-10T10:15:15.589Z,21.98
2018-07-10T10:16:15.551Z,22.15
2018-07-10T10:17:15.505Z,22.50
2018-07-10T10:18:15.495Z,22.75
2018-07-10T10:19:15.422Z,23.03
2018-07-10T10:20:15.383Z,23.10
2018-07-10T10:21:15.342Z,23.44
2018-07-10T10:22:15.352Z,23.58
2018-07-10T10:23:15.257Z,23.73
2018-07-10T10:24:15.216Z,23.63
2018-07-10T10:25:15.174Z,23.54
2018-07-10T10:26:15.140Z,23.32
2018-07-10T10:27:15.125Z,23.09
2018-07-10T10:28:15.055Z,23.17
2018-07-10T10:29:15.011Z,23.03
2018-07-10T10:30:15.005Z,22.84
2018-07-10T10:31:14.929Z,22.80
2018-07-10T10:32:14.889Z,22.68
2018-07-10T10:33:15.255Z,22.55
2018-07-10T10:34:14.805Z,22.66
2018-07-10T10:35:14.808Z,22.43
2018-07-10T10:36:14.726Z,22.84
2018-07-10T10:37:14.686Z,22.94
2018-07-10T10:38:14.644Z,22.93
2018-07-10T10:39:14.609Z,22.94
2018-07-10T10:40:14.611Z,23.09
2018-07-10T10:41:14.521Z,23.13
2018-07-10T10:42:14.480Z,23.28
2018-07-10T10:43:14.440Z,23.23
2018-07-10T10:44:14.401Z,22.99
2018-07-10T10:45:14.405Z,22.51
2018-07-10T10:46:14.320Z,22.23
2018-07-10T10:47:14.279Z,22.29
2018-07-10T10:48:14.237Z,22.62
2018-07-10T10:49:14.196Z,22.75
2018-07-10T10:50:14.201Z,23.00
2018-07-10T10:51:14.118Z,23.15
2018-07-10T10:52:14.076Z,23.36
2018-07-10T10:53:14.034Z,23.44
2018-07-10T10:54:13.997Z,23.51
2018-07-10T10:55:13.999Z,23.61
2018-07-10T10:56:13.912Z,23.48
2018-07-10T10:57:13.877Z,23.59
2018-07-10T10:58:13.833Z,23.47
2018-07-10T10:59:13.793Z,23.15
2018-07-10T11:00:13.786Z,23.12
2018-07-10T11:01:13.759Z,22.78
2018-07-10T11:02:13.728Z,22.75
2018-07-10T11:03:13.633Z,22.47
2018-07-10T11:04:13.593Z,22.25
2018-07-10T11:05:13.553Z,22.25
2018-07-10T11:06:13.544Z,22.20
2018-07-10T11:07:13.470Z,22.22
2018-07-10T11:08:13.461Z,22.11
2018-07-10T11:09:13.392Z,22.04
2018-07-10T11:10:13.381Z,21.93
2018-07-10T11:11:13.344Z,21.92
2018-07-10T11:12:13.270Z,21.83
2018-07-10T11:13:13.226Z,21.95
2018-07-10T11:14:13.189Z,21.95
2018-07-10T11:15:13.145Z,22.10
2018-07-10T11:16:13.136Z,22.04
2018-07-10T11:17:13.065Z,21.99
2018-07-10T11:18:13.024Z,22.00
2018-07-10T11:19:12.983Z,21.98
2018-07-10T11:20:12.943Z,22.22
2018-07-10T11:21:12.940Z,22.26
2018-07-10T11:22:12.870Z,22.48
2018-07-10T11:23:12.819Z,22.78
2018-07-10T11:24:12.782Z,22.91
2018-07-10T11:25:12.739Z,22.94
2018-07-10T11:26:12.746Z,23.02
2018-07-10T11:27:12.659Z,23.21
2018-07-10T11:28:12.616Z,23.00
2018-07-10T11:29:12.574Z,22.91
2018-07-10T11:30:12.534Z,22.87
2018-07-10T11:31:12.535Z,23.05
2018-07-10T11:32:12.488Z,23.17
2018-07-10T11:33:12.418Z,23.55
2018-07-10T11:34:12.372Z,23.68
2018-07-10T11:35:12.333Z,23.51
2018-07-10T11:36:12.335Z,23.32
2018-07-10T11:37:12.251Z,22.87
2018-07-10T11:38:12.211Z,22.70
2018-07-10T11:39:12.299Z,23.09
2018-07-10T11:40:12.130Z,23.47
2018-07-10T11:41:12.124Z,23.87
2018-07-10T11:42:12.057Z,24.24
2018-07-10T11:43:12.015Z,24.63
2018-07-10T11:44:11.972Z,24.84
2018-07-10T11:45:11.962Z,25.13
2018-07-10T11:46:11.890Z,25.21
2018-07-10T11:47:11.854Z,25.25
2018-07-10T11:48:11.809Z,25.06
2018-07-10T11:49:11.801Z,24.70
2018-07-10T11:50:11.729Z,24.58
2018-07-10T11:51:11.691Z,24.33
2018-07-10T11:52:11.655Z,24.14
2018-07-10T11:53:11.647Z,24.17
2018-07-10T11:54:11.572Z,24.26
2018-07-10T11:55:11.572Z,24.35
2018-07-10T11:56:11.493Z,24.30
2018-07-10T11:57:11.455Z,24.28
2018-07-10T11:58:11.411Z,24.40
2018-07-10T11:59:11.374Z,24.35
2018-07-10T12:00:11.374Z,24.36
2018-07-10T12:01:11.294Z,24.78
2018-07-10T12:02:11.254Z,25.10
2018-07-10T12:03:11.214Z,25.33
2018-07-10T12:04:11.175Z,25.63
2018-07-10T12:05:11.174Z,25.90
2018-07-10T12:06:11.097Z,25.85
2018-07-10T12:07:11.732Z,25.78
2018-07-10T12:08:11.018Z,25.68
2018-07-10T12:09:10.988Z,25.68
2018-07-10T12:10:11.018Z,25.55
2018-07-10T12:11:10.900Z,25.40
2018-07-10T12:12:10.893Z,25.32
2018-07-10T12:13:10.827Z,25.21
2018-07-10T12:14:10.783Z,24.93
2018-07-10T12:15:10.743Z,24.69
2018-07-10T12:16:10.704Z,24.40
2018-07-10T12:17:10.702Z,24.17
2018-07-10T12:18:10.626Z,24.06
2018-07-10T12:19:10.588Z,23.88
2018-07-10T12:20:10.551Z,23.77
2018-07-10T12:21:10.510Z,23.83
2018-07-10T12:22:10.501Z,23.69
2018-07-10T12:23:10.431Z,23.73
2018-07-10T12:24:10.420Z,23.77
2018-07-10T12:25:10.356Z,23.73
2018-07-10T12:26:10.312Z,23.81
2018-07-10T12:27:10.273Z,24.02
2018-07-10T12:28:10.236Z,24.36
2018-07-10T12:29:10.227Z,24.54
2018-07-10T12:30:10.155Z,25.01
2018-07-10T12:31:10.113Z,24.93
2018-07-10T12:32:10.115Z,24.92
2018-07-10T12:33:10.035Z,24.85
2018-07-10T12:34:09.994Z,24.57
2018-07-10T12:35:09.965Z,24.48
2018-07-10T12:36:09.915Z,24.33
2018-07-10T12:37:09.931Z,24.02
2018-07-10T12:38:09.840Z,23.61
2018-07-10T12:39:09.794Z,23.59
2018-07-10T12:40:09.756Z,23.58
2018-07-10T12:41:09.716Z,23.48
2018-07-10T12:42:09.710Z,23.54
2018-07-10T12:43:09.639Z,23.55
2018-07-10T12:44:09.629Z,23.56
2018-07-10T12:45:09.556Z,23.59
2018-07-10T12:46:09.552Z,23.50
2018-07-10T12:47:09.479Z,23.51
2018-07-10T12:48:09.475Z,23.50
2018-07-10T12:49:09.428Z,23.51
2018-07-10T12:50:09.358Z,23.44
2018-07-10T12:51:09.319Z,23.41
2018-07-10T12:52:09.281Z,23.44
2018-07-10T12:53:09.260Z,23.47